Time;durP1;ratioP1;P1;durP2;ratioP2;P2;SDS_P1;SDS_P2;PMS_P1;PMS_P2;Temp;Humidity;BMP_temperature;BMP_pressure;BME280_temperature;BME280_humidity;BME280_pressure;Samples;Min_cycle;Max_cycle;Signal;HPM_P1;HPM_P2
2023/04/09 00:02:10;;;;;;;;;;;8.60;99.90;;;;;;5057711;28;19916;-78
2023/04/09 00:04:35;;;;;;;;;;;8.60;99.90;;;;;;5040902;28;19913;-78
2023/04/09 00:07:01;;;;;;;;;;;8.60;99.90;;;;;;5059329;28;19979;-78
2023/04/09 00:09:26;;;;;;;;;;;8.60;99.90;;;;;;5058704;28;19913;-78
2023/04/09 00:11:51;;;;;;;;;;;8.70;99.90;;;;;;5058214;28;19999;-78
2023/04/09 00:14:17;;;;;;;;;;;8.70;99.90;;;;;;5057573;28;19959;-78
2023/04/09 00:16:42;;;;;;;;;;;8.70;99.90;;;;;;5058269;28;19909;-78
2023/04/09 00:19:08;;;;;;;;;;;9.20;99.90;;;;;;5057826;28;19955;-78
2023/04/09 00:21:33;;;;;;;;;;;8.80;99.90;;;;;;5058048;28;20318;-78
2023/04/09 00:23:59;;;;;;;;;;;8.80;99.90;;;;;;5039262;28;19916;-78
2023/04/09 00:26:24;;;;;;;;;;;8.80;99.90;;;;;;5039625;28;20355;-78
2023/04/09 00:28:50;;;;;;;;;;;8.80;99.90;;;;;;5056698;28;19919;-77
2023/04/09 00:31:15;;;;;;;;;;;8.90;99.90;;;;;;5057446;28;19944;-77
2023/04/09 00:33:41;;;;;;;;;;;8.90;99.90;;;;;;5057290;28;19909;-77
2023/04/09 00:36:06;;;;;;;;;;;8.90;99.90;;;;;;5038668;28;20278;-76
2023/04/09 00:38:32;;;;;;;;;;;9.00;99.90;;;;;;5038863;28;19999;-75
2023/04/09 00:40:57;;;;;;;;;;;8.90;99.90;;;;;;5038492;28;20379;-75
2023/04/09 00:43:23;;;;;;;;;;;9.00;99.90;;;;;;5056398;28;20380;-75
2023/04/09 00:45:48;;;;;;;;;;;9.00;99.90;;;;;;5056323;28;19909;-75
2023/04/09 00:48:15;;;;;;;;;;;9.10;99.90;;;;;;5056133;28;20295;-75
2023/04/09 00:50:43;;;;;;;;;;;9.20;99.90;;;;;;5038263;28;20019;-76
2023/04/09 00:53:09;;;;;;;;;;;9.10;99.90;;;;;;5037922;28;20314;-76
2023/04/09 00:55:35;;;;;;;;;;;9.10;99.90;;;;;;5038297;28;19913;-76
2023/04/09 00:58:03;;;;;;;;;;;9.10;99.90;;;;;;5056061;28;19909;-76
2023/04/09 01:00:29;;;;;;;;;;;9.10;99.90;;;;;;5056148;28;19909;-76
2023/04/09 01:02:56;;;;;;;;;;;10.50;99.90;;;;;;5056003;28;19935;-76
2023/04/09 01:05:22;;;;;;;;;;;9.10;99.90;;;;;;5037987;28;20368;-75
2023/04/09 01:07:54;;;;;;;;;;;9.10;99.90;;;;;;5038021;28;20287;-76
2023/04/09 01:10:24;;;;;;;;;;;9.10;99.90;;;;;;5037942;28;19913;-76
2023/04/09 01:13:08;;;;;;;;;;;9.20;99.90;;;;;;5056400;28;19909;-76
2023/04/09 01:15:37;;;;;;;;;;;9.10;99.90;;;;;;5038676;28;20348;-76
2023/04/09 01:18:02;;;;;;;;;;;9.20;99.90;;;;;;5037496;28;19917;-76
2023/04/09 01:20:32;;;;;;;;;;;9.20;99.90;;;;;;5037749;28;19915;-76
2023/04/09 01:23:09;;;;;;;;;;;9.70;99.90;;;;;;5037699;28;19909;-76
2023/04/09 01:25:53;;;;;;;;;;;9.20;99.90;;;;;;5055412;28;19909;-76
2023/04/09 01:28:28;;;;;;;;;;;9.20;99.90;;;;;;5055323;28;20332;-76
2023/04/09 01:31:00;;;;;;;;;;;9.30;99.90;;;;;;5055635;28;20375;-76
2023/04/09 01:33:26;;;;;;;;;;;9.30;99.90;;;;;;5037608;28;20428;-76
2023/04/09 01:35:52;;;;;;;;;;;9.30;99.90;;;;;;5055442;28;19999;-76
2023/04/09 01:38:19;;;;;;;;;;;9.30;99.90;;;;;;5055262;28;20013;-76
2023/04/09 01:40:45;;;;;;;;;;;9.30;99.90;;;;;;5055285;28;19909;-76
2023/04/09 01:43:12;;;;;;;;;;;9.90;99.90;;;;;;5055139;28;19999;-76
2023/04/09 01:45:38;;;;;;;;;;;9.30;99.90;;;;;;5037323;28;19913;-76
2023/04/09 01:48:03;;;;;;;;;;;9.30;99.90;;;;;;5037607;28;19915;-77
2023/04/09 01:50:29;;;;;;;;;;;9.30;99.90;;;;;;5055111;28;19913;-76
2023/04/09 01:52:55;;;;;;;;;;;9.30;99.90;;;;;;5055049;28;20375;-76
2023/04/09 01:55:20;;;;;;;;;;;9.30;99.90;;;;;;5055081;28;20363;-76
2023/04/09 01:57:46;;;;;;;;;;;9.30;99.90;;;;;;5055504;28;19916;-76
2023/04/09 02:00:12;;;;;;;;;;;9.20;99.90;;;;;;5037103;28;19909;-76
2023/04/09 02:02:52;;;;;;;;;;;9.30;99.90;;;;;;5054787;28;19916;-76
2023/04/09 02:05:21;;;;;;;;;;;9.30;99.90;;;;;;5036513;28;20437;-76
2023/04/09 02:07:51;;;;;;;;;;;9.30;99.90;;;;;;5054719;28;20359;-76
2023/04/09 02:10:18;;;;;;;;;;;9.30;99.90;;;;;;5036631;28;20305;-76
2023/04/09 02:12:46;;;;;;;;;;;9.30;99.90;;;;;;5054715;28;19909;-76
2023/04/09 02:15:12;;;;;;;;;;;9.30;99.90;;;;;;5054480;28;19909;-76
2023/04/09 02:17:37;;;;;;;;;;;9.30;99.90;;;;;;5054231;28;19925;-76
2023/04/09 02:20:03;;;;;;;;;;;9.30;99.90;;;;;;5054358;28;19909;-76
2023/04/09 02:22:29;;;;;;;;;;;9.30;99.90;;;;;;5036799;28;20417;-76
2023/04/09 02:24:54;;;;;;;;;;;11.10;99.90;;;;;;5054366;28;19909;-76
2023/04/09 02:27:20;;;;;;;;;;;10.10;99.90;;;;;;5036365;28;19909;-76
2023/04/09 02:29:45;;;;;;;;;;;9.30;99.90;;;;;;5036301;28;19912;-76
2023/04/09 02:32:11;;;;;;;;;;;9.30;99.90;;;;;;5054187;28;19920;-76
2023/04/09 02:34:36;;;;;;;;;;;9.30;99.90;;;;;;5054079;28;19913;-76
2023/04/09 02:37:02;;;;;;;;;;;10.30;99.90;;;;;;5054933;28;19936;-77
2023/04/09 02:39:27;;;;;;;;;;;9.30;99.90;;;;;;5054100;28;19963;-76
2023/04/09 02:41:53;;;;;;;;;;;9.30;99.90;;;;;;5036207;28;19949;-76
2023/04/09 02:44:18;;;;;;;;;;;9.30;99.90;;;;;;5036152;28;19908;-76
2023/04/09 02:46:45;;;;;;;;;;;9.30;99.90;;;;;;5054449;28;20003;-76
2023/04/09 02:49:11;;;;;;;;;;;9.70;99.90;;;;;;5035908;28;19938;-76
2023/04/09 02:51:36;;;;;;;;;;;9.30;99.90;;;;;;5035987;28;19913;-76
2023/04/09 02:54:02;;;;;;;;;;;9.30;99.90;;;;;;5053969;28;20384;-76
2023/04/09 02:56:28;;;;;;;;;;;9.30;99.90;;;;;;5036470;28;20401;-76
2023/04/09 02:58:54;;;;;;;;;;;9.30;99.90;;;;;;5035904;28;19967;-76
2023/04/09 03:01:20;;;;;;;;;;;9.30;99.90;;;;;;5035843;28;19909;-76
2023/04/09 03:03:45;;;;;;;;;;;9.40;99.90;;;;;;5035631;28;19916;-76
2023/04/09 03:06:11;;;;;;;;;;;9.40;99.90;;;;;;5053644;28;19909;-76
2023/04/09 03:08:36;;;;;;;;;;;9.40;99.90;;;;;;5035654;28;19964;-76
2023/04/09 03:11:02;;;;;;;;;;;9.40;99.90;;;;;;5053850;28;20007;-76
2023/04/09 03:13:27;;;;;;;;;;;9.40;99.90;;;;;;5035777;28;19936;-76
2023/04/09 03:15:53;;;;;;;;;;;9.40;99.90;;;;;;5035692;28;19909;-77
2023/04/09 03:18:18;;;;;;;;;;;10.50;99.90;;;;;;5053332;28;19943;-76
2023/04/09 03:20:44;;;;;;;;;;;9.40;99.90;;;;;;5053446;28;19952;-75
2023/04/09 03:23:09;;;;;;;;;;;9.40;99.90;;;;;;5054133;28;19959;-75
2023/04/09 03:25:35;;;;;;;;;;;9.40;99.90;;;;;;5035572;28;19909;-76
2023/04/09 03:28:01;;;;;;;;;;;9.70;99.90;;;;;;5035575;28;19996;-76
2023/04/09 03:30:27;;;;;;;;;;;9.40;99.90;;;;;;5035380;28;20327;-77
2023/04/09 03:32:53;;;;;;;;;;;9.40;99.90;;;;;;5035353;28;19908;-76
2023/04/09 03:35:18;;;;;;;;;;;9.40;99.90;;;;;;5035535;28;20004;-77
2023/04/09 03:37:43;;;;;;;;;;;9.40;99.90;;;;;;5053536;28;20368;-77
2023/04/09 03:40:09;;;;;;;;;;;9.40;99.90;;;;;;5036959;28;19951;-76
2023/04/09 03:42:36;;;;;;;;;;;9.40;99.90;;;;;;5035541;28;19909;-77
2023/04/09 03:45:02;;;;;;;;;;;10.20;99.90;;;;;;5035522;28;19962;-77
2023/04/09 03:47:28;;;;;;;;;;;9.40;99.90;;;;;;5035353;28;19909;-76
2023/04/09 03:49:53;;;;;;;;;;;10.00;99.90;;;;;;5053236;28;19923;-76
2023/04/09 03:52:21;;;;;;;;;;;9.50;99.90;;;;;;5053247;28;20007;-77
2023/04/09 03:54:47;;;;;;;;;;;9.40;99.90;;;;;;5035289;28;19916;-76
2023/04/09 03:57:12;;;;;;;;;;;9.40;99.90;;;;;;5053205;28;19913;-76
2023/04/09 03:59:38;;;;;;;;;;;9.40;99.90;;;;;;5053222;28;19944;-77
2023/04/09 04:02:03;;;;;;;;;;;9.30;99.90;;;;;;5053256;28;19913;-77
2023/04/09 04:04:29;;;;;;;;;;;9.40;99.90;;;;;;5053267;28;19913;-77
2023/04/09 04:06:55;;;;;;;;;;;9.40;99.90;;;;;;5035285;28;19908;-78
2023/04/09 04:09:20;;;;;;;;;;;9.30;99.90;;;;;;5053621;28;19912;-77
2023/04/09 04:11:46;;;;;;;;;;;9.40;99.90;;;;;;5053146;28;19909;-78
2023/04/09 04:14:11;;;;;;;;;;;9.40;99.90;;;;;;5053174;28;19966;-77
2023/04/09 04:16:38;;;;;;;;;;;9.30;99.90;;;;;;5053136;28;20004;-77
2023/04/09 04:19:04;;;;;;;;;;;9.30;99.90;;;;;;5052967;28;19920;-77
2023/04/09 04:21:30;;;;;;;;;;;9.30;99.90;;;;;;5053372;28;19932;-78
2023/04/09 04:23:55;;;;;;;;;;;9.40;99.90;;;;;;5053107;28;19993;-77
2023/04/09 04:26:21;;;;;;;;;;;9.40;99.90;;;;;;5035195;28;19959;-77
2023/04/09 04:28:46;;;;;;;;;;;10.50;99.90;;;;;;5038797;28;20007;-77
2023/04/09 04:31:12;;;;;;;;;;;9.40;99.90;;;;;;5056660;28;20334;-78
2023/04/09 04:33:38;;;;;;;;;;;9.30;99.90;;;;;;5038773;28;19919;-77
2023/04/09 04:36:05;;;;;;;;;;;10.30;99.90;;;;;;5056547;28;19912;-77
2023/04/09 04:38:31;;;;;;;;;;;9.30;99.90;;;;;;5056311;28;20326;-77
2023/04/09 04:40:56;;;;;;;;;;;9.40;99.90;;;;;;5056604;28;19909;-78
2023/04/09 04:43:22;;;;;;;;;;;9.40;99.90;;;;;;5056432;28;19932;-77
2023/04/09 04:45:47;;;;;;;;;;;9.40;99.90;;;;;;5056379;28;19934;-78
2023/04/09 04:48:13;;;;;;;;;;;9.40;99.90;;;;;;5038410;28;19916;-77
2023/04/09 04:50:38;;;;;;;;;;;9.40;99.90;;;;;;5056242;28;19913;-78
2023/04/09 04:53:03;;;;;;;;;;;9.50;99.90;;;;;;5038507;28;19920;-77
2023/04/09 04:55:29;;;;;;;;;;;9.50;99.90;;;;;;5056060;28;20363;-77
2023/04/09 04:57:54;;;;;;;;;;;9.40;99.90;;;;;;5038150;28;19912;-77
2023/04/09 05:00:20;;;;;;;;;;;9.40;99.90;;;;;;5038122;28;20371;-76
2023/04/09 05:02:45;;;;;;;;;;;9.40;99.90;;;;;;5055939;28;19908;-76
2023/04/09 05:05:11;;;;;;;;;;;9.40;99.90;;;;;;5038069;28;19916;-76
2023/04/09 05:07:36;;;;;;;;;;;9.30;99.90;;;;;;5055923;28;19994;-78
2023/04/09 05:10:02;;;;;;;;;;;9.30;99.90;;;;;;5037930;28;19961;-77
2023/04/09 05:12:30;;;;;;;;;;;9.30;99.90;;;;;;5055864;28;19909;-77
2023/04/09 05:14:55;;;;;;;;;;;9.70;99.90;;;;;;5037871;28;20308;-77
2023/04/09 05:17:22;;;;;;;;;;;9.30;99.90;;;;;;5037950;28;19917;-77
2023/04/09 05:19:51;;;;;;;;;;;9.30;99.90;;;;;;5055805;28;20287;-77
2023/04/09 05:22:17;;;;;;;;;;;9.30;99.90;;;;;;5037743;28;19916;-77
2023/04/09 05:24:42;;;;;;;;;;;9.30;99.90;;;;;;5055571;28;19909;-77
2023/04/09 05:27:08;;;;;;;;;;;10.40;99.90;;;;;;5037596;28;20287;-77
2023/04/09 05:29:33;;;;;;;;;;;9.20;99.90;;;;;;5055472;28;19946;-77
2023/04/09 05:31:58;;;;;;;;;;;9.30;99.90;;;;;;5055434;28;20382;-77
2023/04/09 05:34:24;;;;;;;;;;;10.20;99.90;;;;;;5037543;28;20029;-77
2023/04/09 05:36:49;;;;;;;;;;;10.10;99.90;;;;;;5055333;28;19916;-77
2023/04/09 05:39:15;;;;;;;;;;;10.20;99.90;;;;;;5054227;28;20425;-77
2023/04/09 05:41:41;;;;;;;;;;;9.60;99.90;;;;;;5055331;28;19959;-76
2023/04/09 05:44:06;;;;;;;;;;;9.30;99.90;;;;;;5037487;28;19958;-77
2023/04/09 05:46:32;;;;;;;;;;;9.40;99.90;;;;;;5055038;28;19912;-77
2023/04/09 05:48:57;;;;;;;;;;;9.30;99.90;;;;;;5055058;28;19920;-77
2023/04/09 05:51:23;;;;;;;;;;;9.40;99.90;;;;;;5055121;28;19909;-78
2023/04/09 05:53:48;;;;;;;;;;;9.40;99.90;;;;;;5055361;28;19916;-78
2023/04/09 05:56:14;;;;;;;;;;;9.40;99.90;;;;;;5054876;28;20283;-77
2023/04/09 05:58:40;;;;;;;;;;;9.50;99.90;;;;;;5055011;28;19987;-78
2023/04/09 06:01:05;;;;;;;;;;;9.40;99.90;;;;;;5037201;28;20256;-78
2023/04/09 06:03:31;;;;;;;;;;;9.40;99.90;;;;;;5037043;28;19999;-78
2023/04/09 06:05:56;;;;;;;;;;;9.40;99.90;;;;;;5054728;28;20291;-77
2023/04/09 06:08:21;;;;;;;;;;;10.10;99.90;;;;;;5054620;28;19909;-77
2023/04/09 06:10:47;;;;;;;;;;;9.50;99.90;;;;;;5054937;28;19959;-78
2023/04/09 06:13:12;;;;;;;;;;;9.40;99.90;;;;;;5037338;28;19915;-78
2023/04/09 06:15:38;;;;;;;;;;;9.40;99.90;;;;;;5054502;28;19909;-77
2023/04/09 06:18:03;;;;;;;;;;;9.50;99.90;;;;;;5054468;28;20450;-77
2023/04/09 06:20:29;;;;;;;;;;;10.30;99.90;;;;;;5054638;28;20360;-77
2023/04/09 06:22:54;;;;;;;;;;;10.30;99.90;;;;;;5054332;28;19916;-77
2023/04/09 06:25:20;;;;;;;;;;;9.40;99.90;;;;;;5036538;28;20275;-77
2023/04/09 06:27:45;;;;;;;;;;;9.50;99.90;;;;;;5054323;28;19994;-77
2023/04/09 06:30:11;;;;;;;;;;;9.40;99.90;;;;;;5054643;28;19913;-76
2023/04/09 06:32:37;;;;;;;;;;;9.50;99.90;;;;;;5036665;28;19909;-76
2023/04/09 06:35:03;;;;;;;;;;;9.50;99.90;;;;;;5054323;28;19908;-76
2023/04/09 06:37:28;;;;;;;;;;;9.50;99.90;;;;;;5036459;28;19908;-76
2023/04/09 06:39:53;;;;;;;;;;;9.50;99.90;;;;;;5036455;28;19963;-76
2023/04/09 06:42:19;;;;;;;;;;;9.50;99.90;;;;;;5054230;28;20291;-77
2023/04/09 06:44:45;;;;;;;;;;;9.50;99.90;;;;;;5036262;28;19909;-76
2023/04/09 06:47:10;;;;;;;;;;;9.50;99.90;;;;;;5054027;28;19955;-76
2023/04/09 06:49:36;;;;;;;;;;;9.60;99.90;;;;;;5053659;28;19913;-77
2023/04/09 06:52:02;;;;;;;;;;;10.20;99.90;;;;;;5054052;28;20265;-77
2023/04/09 06:54:28;;;;;;;;;;;9.60;99.90;;;;;;5054320;28;19909;-77
2023/04/09 06:56:53;;;;;;;;;;;9.60;99.90;;;;;;5054361;28;19916;-77
2023/04/09 06:59:19;;;;;;;;;;;10.20;99.90;;;;;;5054814;28;20363;-76
2023/04/09 07:01:44;;;;;;;;;;;9.60;99.90;;;;;;5054664;28;19912;-77
2023/04/09 07:04:10;;;;;;;;;;;9.60;99.90;;;;;;5054130;28;20425;-76
2023/04/09 07:06:35;;;;;;;;;;;10.10;99.90;;;;;;5054140;28;19908;-77
2023/04/09 07:09:01;;;;;;;;;;;9.60;99.90;;;;;;5037366;28;19919;-77
2023/04/09 07:11:26;;;;;;;;;;;11.00;99.90;;;;;;5054702;28;20379;-77
2023/04/09 07:13:52;;;;;;;;;;;9.70;99.90;;;;;;5054821;28;19909;-78
2023/04/09 07:16:17;;;;;;;;;;;9.90;99.90;;;;;;5036217;28;20259;-78
2023/04/09 07:18:43;;;;;;;;;;;9.70;99.90;;;;;;5054243;28;19917;-77
2023/04/09 07:21:08;;;;;;;;;;;9.80;99.90;;;;;;5053898;28;19956;-78
2023/04/09 07:23:35;;;;;;;;;;;9.80;99.90;;;;;;5053831;28;19913;-78
2023/04/09 07:26:04;;;;;;;;;;;9.80;99.90;;;;;;5036379;28;19913;-77
2023/04/09 07:28:29;;;;;;;;;;;9.90;99.90;;;;;;5054169;28;20367;-77
2023/04/09 07:30:55;;;;;;;;;;;9.90;99.90;;;;;;5054566;28;19924;-77
2023/04/09 07:33:20;;;;;;;;;;;10.50;99.90;;;;;;5038195;28;20310;-79
2023/04/09 07:35:46;;;;;;;;;;;10.10;99.90;;;;;;5037924;28;19972;-79
2023/04/09 07:38:11;;;;;;;;;;;10.20;99.90;;;;;;5054970;28;20386;-77
2023/04/09 07:40:37;;;;;;;;;;;10.60;99.90;;;;;;5037222;28;19913;-75
2023/04/09 07:43:03;;;;;;;;;;;10.40;99.90;;;;;;5037598;28;19909;-76
2023/04/09 07:45:29;;;;;;;;;;;10.80;99.90;;;;;;5036281;28;19916;-76
2023/04/09 07:47:55;;;;;;;;;;;10.60;99.90;;;;;;5036705;28;19913;-75
2023/04/09 07:50:20;;;;;;;;;;;10.70;99.90;;;;;;5055226;28;19951;-75
2023/04/09 07:52:46;;;;;;;;;;;10.70;99.90;;;;;;5038191;28;19915;-76
2023/04/09 07:55:12;;;;;;;;;;;10.80;99.90;;;;;;5037438;28;19975;-75
2023/04/09 07:57:37;;;;;;;;;;;10.80;99.90;;;;;;5037774;28;19912;-76
2023/04/09 08:00:03;;;;;;;;;;;10.80;99.90;;;;;;5036710;28;20360;-76
2023/04/09 08:02:29;;;;;;;;;;;10.90;99.90;;;;;;5037231;28;20011;-76
2023/04/09 08:04:55;;;;;;;;;;;11.10;99.90;;;;;;5057200;28;20352;-77
2023/04/09 08:07:20;;;;;;;;;;;11.00;99.90;;;;;;5057264;28;19951;-77
2023/04/09 08:09:46;;;;;;;;;;;11.00;99.90;;;;;;5056373;28;19960;-76
2023/04/09 08:12:11;;;;;;;;;;;13.00;99.90;;;;;;5055945;28;19962;-76
2023/04/09 08:14:37;;;;;;;;;;;11.30;99.90;;;;;;5056965;28;20283;-76
2023/04/09 08:17:03;;;;;;;;;;;11.10;99.90;;;;;;5056536;28;19913;-76
2023/04/09 08:19:29;;;;;;;;;;;11.10;99.90;;;;;;5055750;28;19913;-75
2023/04/09 08:21:55;;;;;;;;;;;11.30;99.90;;;;;;5056567;28;19932;-76
2023/04/09 08:24:21;;;;;;;;;;;11.20;99.90;;;;;;5038860;28;19958;-76
2023/04/09 08:26:46;;;;;;;;;;;12.10;99.90;;;;;;5038794;28;19916;-76
2023/04/09 08:29:14;;;;;;;;;;;11.50;99.90;;;;;;5038627;28;19912;-77
2023/04/09 08:31:40;;;;;;;;;;;11.60;99.90;;;;;;5056373;28;19913;-76
2023/04/09 08:34:06;;;;;;;;;;;12.40;99.90;;;;;;5038535;28;20330;-77
2023/04/09 08:36:33;;;;;;;;;;;11.90;99.90;;;;;;5056794;28;19909;-76
2023/04/09 08:38:59;;;;;;;;;;;12.00;99.90;;;;;;5038357;28;19915;-76
2023/04/09 08:41:27;;;;;;;;;;;12.10;99.90;;;;;;5038487;28;19999;-76
2023/04/09 08:43:54;;;;;;;;;;;12.20;99.90;;;;;;5038317;28;19909;-76
2023/04/09 08:46:19;;;;;;;;;;;12.30;99.90;;;;;;5038242;28;20322;-77
2023/04/09 08:48:45;;;;;;;;;;;12.50;99.90;;;;;;5038113;28;19996;-76
2023/04/09 08:51:12;;;;;;;;;;;12.60;99.90;;;;;;5038267;28;19909;-76
2023/04/09 08:53:37;;;;;;;;;;;12.90;99.90;;;;;;5068675;23;20397;-76
2023/04/09 08:56:03;;;;;;;;;;;13.90;99.90;;;;;;5058086;28;19908;-76
2023/04/09 08:58:29;;;;;;;;;;;13.40;99.90;;;;;;5075997;28;19916;-76
2023/04/09 09:00:54;;;;;;;;;;;13.80;99.90;;;;;;5058069;28;19944;-76
2023/04/09 09:03:20;;;;;;;;;;;14.00;99.90;;;;;;5058049;28;19908;-76
2023/04/09 09:05:45;;;;;;;;;;;14.30;99.90;;;;;;5076511;28;19913;-76
2023/04/09 09:08:29;;;;;;;;;;;14.30;99.90;;;;;;5075869;28;20323;-76
2023/04/09 09:10:55;;;;;;;;;;;14.30;99.90;;;;;;5075903;28;19956;-76
2023/04/09 09:13:21;;;;;;;;;;;14.20;99.90;;;;;;5057676;28;19915;-76
2023/04/09 09:15:49;;;;;;;;;;;14.20;99.90;;;;;;5057829;28;19916;-76
2023/04/09 09:18:15;;;;;;;;;;;14.20;99.90;;;;;;5057705;28;19994;-76
2023/04/09 09:20:41;;;;;;;;;;;14.10;99.90;;;;;;5057548;28;19915;-76
2023/04/09 09:23:07;;;;;;;;;;;13.90;99.90;;;;;;5057646;28;19909;-76
2023/04/09 09:25:42;;;;;;;;;;;13.80;99.90;;;;;;5075626;28;20424;-76
2023/04/09 09:28:09;;;;;;;;;;;13.70;99.90;;;;;;5057429;28;19909;-76
2023/04/09 09:30:35;;;;;;;;;;;14.00;99.90;;;;;;5075431;28;19923;-76
2023/04/09 09:33:10;;;;;;;;;;;13.70;99.90;;;;;;5057211;28;19915;-76
2023/04/09 09:35:46;;;;;;;;;;;13.80;99.90;;;;;;5057633;28;19920;-76
2023/04/09 09:38:11;;;;;;;;;;;14.10;99.90;;;;;;5057357;28;20409;-76
2023/04/09 09:40:36;;;;;;;;;;;14.20;99.90;;;;;;5075176;28;19952;-76
2023/04/09 09:43:02;;;;;;;;;;;14.40;99.90;;;;;;5057429;28;19909;-76
2023/04/09 09:45:28;;;;;;;;;;;14.40;99.90;;;;;;5075293;28;20018;-76
2023/04/09 09:47:53;;;;;;;;;;;14.50;99.90;;;;;;5075008;28;19908;-76
2023/04/09 09:50:22;;;;;;;;;;;14.60;99.90;;;;;;5074934;28;19919;-76
2023/04/09 09:52:48;;;;;;;;;;;14.60;99.90;;;;;;5074986;28;19991;-76
2023/04/09 09:55:14;;;;;;;;;;;14.70;99.90;;;;;;5074900;28;20006;-76
2023/04/09 09:57:43;;;;;;;;;;;15.00;99.90;;;;;;5074903;28;20383;-76
2023/04/09 10:00:10;;;;;;;;;;;15.10;99.90;;;;;;5057050;28;19962;-76
2023/04/09 10:02:39;;;;;;;;;;;15.20;99.90;;;;;;5074788;28;19918;-76
2023/04/09 10:05:06;;;;;;;;;;;15.10;99.90;;;;;;5074715;28;19909;-76
2023/04/09 10:07:32;;;;;;;;;;;15.00;99.90;;;;;;5056655;28;19915;-76
2023/04/09 10:09:59;;;;;;;;;;;15.00;99.90;;;;;;5073961;28;20379;-76
2023/04/09 10:12:25;;;;;;;;;;;15.10;99.90;;;;;;5056607;28;19908;-76
2023/04/09 10:14:54;;;;;;;;;;;15.10;99.90;;;;;;5056702;28;19916;-76
2023/04/09 10:17:20;;;;;;;;;;;15.10;99.90;;;;;;5074355;28;20403;-76
2023/04/09 10:19:55;;;;;;;;;;;15.20;99.90;;;;;;5056573;28;19920;-76
2023/04/09 10:22:22;;;;;;;;;;;15.40;99.90;;;;;;5074393;28;19908;-76
2023/04/09 10:24:48;;;;;;;;;;;15.40;99.90;;;;;;5055961;28;19913;-76
2023/04/09 10:27:14;;;;;;;;;;;15.40;99.90;;;;;;5074322;28;19909;-76
2023/04/09 10:29:44;;;;;;;;;;;15.40;99.90;;;;;;5056363;28;19956;-75
2023/04/09 10:32:10;;;;;;;;;;;15.30;99.90;;;;;;5074269;28;19909;-76
2023/04/09 10:34:40;;;;;;;;;;;15.30;99.90;;;;;;5074154;28;19916;-76
2023/04/09 10:37:06;;;;;;;;;;;15.30;99.90;;;;;;5056134;28;19931;-76
2023/04/09 10:39:32;;;;;;;;;;;15.70;99.90;;;;;;5056238;28;20264;-76
2023/04/09 10:41:58;;;;;;;;;;;15.40;99.90;;;;;;5056146;28;19908;-76
2023/04/09 10:44:25;;;;;;;;;;;15.40;99.90;;;;;;5056197;28;19963;-76
2023/04/09 10:46:52;;;;;;;;;;;15.50;99.90;;;;;;5056024;28;19912;-76
2023/04/09 10:49:18;;;;;;;;;;;15.50;99.90;;;;;;5073917;28;19920;-76
2023/04/09 10:52:03;;;;;;;;;;;15.40;99.90;;;;;;5056068;28;20355;-75
2023/04/09 10:54:36;;;;;;;;;;;15.30;99.90;;;;;;5073813;28;20298;-76
2023/04/09 10:57:08;;;;;;;;;;;15.30;99.90;;;;;;5055816;28;19908;-76
2023/04/09 10:59:37;;;;;;;;;;;15.30;99.90;;;;;;5073862;28;19955;-76
2023/04/09 11:02:05;;;;;;;;;;;15.50;99.90;;;;;;5073860;28;19916;-76
2023/04/09 11:04:46;;;;;;;;;;;15.80;99.90;;;;;;5055761;28;19908;-76
2023/04/09 11:07:14;;;;;;;;;;;16.10;99.90;;;;;;5073664;28;19931;-76
2023/04/09 11:09:40;;;;;;;;;;;16.40;99.90;;;;;;5055729;28;19920;-76
2023/04/09 11:12:05;;;;;;;;;;;16.60;99.90;;;;;;5073707;28;19912;-76
2023/04/09 11:14:32;;;;;;;;;;;16.80;99.90;;;;;;5055720;28;19973;-76
2023/04/09 11:16:57;;;;;;;;;;;17.00;99.90;;;;;;5073836;28;19935;-76
2023/04/09 11:19:23;;;;;;;;;;;17.20;99.90;;;;;;5055662;28;19909;-76
2023/04/09 11:21:48;;;;;;;;;;;17.40;99.90;;;;;;5055665;28;20422;-76
2023/04/09 11:24:17;;;;;;;;;;;17.60;99.90;;;;;;5056229;28;20373;-76
2023/04/09 11:26:42;;;;;;;;;;;17.80;99.90;;;;;;5055395;28;19912;-76
2023/04/09 11:29:08;;;;;;;;;;;17.70;99.90;;;;;;5055506;28;19919;-76
2023/04/09 11:31:34;;;;;;;;;;;17.30;99.90;;;;;;5055434;28;19930;-76
2023/04/09 11:34:00;;;;;;;;;;;17.00;99.90;;;;;;5073442;28;20456;-76
2023/04/09 11:36:26;;;;;;;;;;;16.70;99.90;;;;;;5073542;28;19966;-76
2023/04/09 11:38:53;;;;;;;;;;;16.50;99.90;;;;;;5077612;28;20291;-76
2023/04/09 11:41:35;;;;;;;;;;;16.60;99.90;;;;;;5059509;28;19909;-76
2023/04/09 11:44:04;;;;;;;;;;;16.70;99.90;;;;;;5059604;28;19944;-76
2023/04/09 11:46:33;;;;;;;;;;;16.70;99.90;;;;;;5077295;28;19909;-76
2023/04/09 11:48:59;;;;;;;;;;;16.40;99.90;;;;;;5059481;28;19913;-76
2023/04/09 11:51:26;;;;;;;;;;;16.30;99.90;;;;;;5059255;28;19931;-76
2023/04/09 11:53:51;;;;;;;;;;;16.10;99.90;;;;;;5077195;28;20343;-76
2023/04/09 11:56:17;;;;;;;;;;;16.20;99.90;;;;;;5077057;28;19998;-76
2023/04/09 11:58:46;;;;;;;;;;;16.50;99.90;;;;;;5077172;28;19915;-76
2023/04/09 12:01:12;;;;;;;;;;;16.90;99.90;;;;;;5059074;28;19909;-76
2023/04/09 12:03:37;;;;;;;;;;;17.20;99.90;;;;;;5059131;28;19919;-76
2023/04/09 12:06:04;;;;;;;;;;;17.70;99.90;;;;;;5076805;28;19908;-76
2023/04/09 12:08:30;;;;;;;;;;;18.10;99.90;;;;;;5077074;28;19909;-76
2023/04/09 12:10:56;;;;;;;;;;;18.30;96.30;;;;;;5076818;28;19924;-76
2023/04/09 12:13:30;;;;;;;;;;;18.40;94.70;;;;;;5058898;28;19908;-76
2023/04/09 12:15:57;;;;;;;;;;;18.40;94.90;;;;;;5076764;28;19951;-76
2023/04/09 12:18:22;;;;;;;;;;;18.40;95.60;;;;;;5076550;28;19934;-76
2023/04/09 12:20:48;;;;;;;;;;;18.20;95.70;;;;;;5076617;28;19919;-76
2023/04/09 12:23:14;;;;;;;;;;;18.30;92.80;;;;;;5076533;28;20282;-76
2023/04/09 12:25:41;;;;;;;;;;;18.50;93.50;;;;;;5058659;28;19908;-76
2023/04/09 12:28:07;;;;;;;;;;;18.50;92.00;;;;;;5076446;28;20062;-76
2023/04/09 12:30:33;;;;;;;;;;;18.50;92.80;;;;;;5076427;28;19912;-76
2023/04/09 12:32:59;;;;;;;;;;;18.70;91.80;;;;;;5076422;28;19909;-76
2023/04/09 12:35:24;;;;;;;;;;;18.90;90.60;;;;;;5058373;28;19915;-76
2023/04/09 12:37:50;;;;;;;;;;;19.20;90.60;;;;;;5058722;28;19915;-76
2023/04/09 12:40:16;;;;;;;;;;;19.40;90.40;;;;;;5076368;28;19912;-76
2023/04/09 12:42:43;;;;;;;;;;;19.80;90.20;;;;;;5076332;28;19915;-76
2023/04/09 12:45:09;;;;;;;;;;;20.00;86.10;;;;;;5076268;28;19999;-76
2023/04/09 12:47:35;;;;;;;;;;;20.00;87.60;;;;;;5057675;28;19909;-76
2023/04/09 12:50:00;;;;;;;;;;;20.00;85.70;;;;;;5058257;28;20286;-76
2023/04/09 12:52:26;;;;;;;;;;;20.20;84.60;;;;;;5076463;28;20003;-76
2023/04/09 12:54:51;;;;;;;;;;;20.20;82.60;;;;;;5076250;28;19916;-76
2023/04/09 12:57:17;;;;;;;;;;;19.80;80.70;;;;;;5058091;28;19909;-76
2023/04/09 12:59:42;;;;;;;;;;;19.30;80.00;;;;;;5076169;28;19909;-76
2023/04/09 13:02:08;;;;;;;;;;;18.80;83.00;;;;;;5076013;28;20260;-76
2023/04/09 13:04:33;;;;;;;;;;;18.50;85.10;;;;;;5076061;28;19908;-76
2023/04/09 13:06:59;;;;;;;;;;;18.20;86.80;;;;;;5075879;28;19908;-76
2023/04/09 13:09:25;;;;;;;;;;;18.20;87.60;;;;;;5057831;28;19912;-76
2023/04/09 13:11:50;;;;;;;;;;;18.50;87.80;;;;;;5075823;28;19954;-76
2023/04/09 13:14:16;;;;;;;;;;;19.00;85.40;;;;;;5075757;28;19909;-76
2023/04/09 13:16:42;;;;;;;;;;;18.90;83.60;;;;;;5058099;28;19908;-76
2023/04/09 13:19:08;;;;;;;;;;;18.60;83.40;;;;;;5075401;28;19954;-76
2023/04/09 13:21:33;;;;;;;;;;;18.30;84.70;;;;;;5075919;28;19934;-76
2023/04/09 13:23:59;;;;;;;;;;;18.00;84.50;;;;;;5075988;28;20444;-76
2023/04/09 13:26:24;;;;;;;;;;;17.80;89.40;;;;;;5075166;28;19915;-76
2023/04/09 13:28:50;;;;;;;;;;;18.10;85.00;;;;;;5056684;28;19959;-76
2023/04/09 13:31:16;;;;;;;;;;;18.50;86.20;;;;;;5057425;28;20295;-76
2023/04/09 13:33:41;;;;;;;;;;;18.80;83.80;;;;;;5075442;28;19908;-76
2023/04/09 13:36:07;;;;;;;;;;;18.70;82.70;;;;;;5075788;28;19916;-76
2023/04/09 13:38:32;;;;;;;;;;;18.80;82.30;;;;;;5075246;28;20318;-76
2023/04/09 13:40:58;;;;;;;;;;;18.80;83.40;;;;;;5057328;28;19999;-76
2023/04/09 13:43:26;;;;;;;;;;;18.70;84.00;;;;;;5057323;28;19908;-76
2023/04/09 13:45:52;;;;;;;;;;;18.60;85.20;;;;;;5057129;28;19908;-76
2023/04/09 13:48:19;;;;;;;;;;;18.30;82.80;;;;;;5057175;28;19908;-76
2023/04/09 13:50:45;;;;;;;;;;;18.80;80.50;;;;;;5074923;28;19913;-76
2023/04/09 13:53:10;;;;;;;;;;;19.00;82.20;;;;;;5056989;28;20019;-76
2023/04/09 13:55:37;;;;;;;;;;;19.00;83.20;;;;;;5075105;28;19913;-76
2023/04/09 13:58:03;;;;;;;;;;;19.10;82.40;;;;;;5074787;28;19952;-76
2023/04/09 14:00:29;;;;;;;;;;;19.20;81.40;;;;;;5073872;28;19954;-76
2023/04/09 14:02:55;;;;;;;;;;;19.70;82.60;;;;;;5056787;28;19961;-76
2023/04/09 14:05:20;;;;;;;;;;;20.20;81.70;;;;;;5074690;28;19908;-76
2023/04/09 14:07:46;;;;;;;;;;;20.60;77.70;;;;;;5074701;28;19909;-76
2023/04/09 14:10:12;;;;;;;;;;;21.10;75.30;;;;;;5056371;28;19913;-76
2023/04/09 14:12:37;;;;;;;;;;;21.40;72.90;;;;;;5074604;28;19913;-76
2023/04/09 14:15:03;;;;;;;;;;;21.40;68.90;;;;;;5074578;28;19987;-76
2023/04/09 14:17:28;;;;;;;;;;;21.40;70.10;;;;;;5074547;28;19915;-76
2023/04/09 14:19:54;;;;;;;;;;;21.60;70.70;;;;;;5055540;28;19915;-76